Time;durP1;ratioP1;P1;durP2;ratioP2;P2;SDS_P1;SDS_P2;PMS_P1;PMS_P2;Temp;Humidity;BMP_temperature;BMP_pressure;BME280_temperature;BME280_humidity;BME280_pressure;Samples;Min_cycle;Max_cycle;Signal;HPM_P1;HPM_P2
2023/01/16 00:00:28;;;;;;;54.15;27.38;;;;;;;;;;5102341;28;20473;-76
2023/01/16 00:03:14;;;;;;;64.63;31.08;;;;;;;;;;5102285;28;20023;-76
2023/01/16 00:06:00;;;;;;;57.83;30.75;;;;;;;;;;5117184;28;20054;-76
2023/01/16 00:08:47;;;;;;;60.03;31.48;;;;;;;;;;5117370;28;20030;-76
2023/01/16 00:11:33;;;;;;;62.22;33.15;;;;;;;;;;5116809;28;20047;-76
2023/01/16 00:14:18;;;;;;;58.13;29.90;;;;;;;;;;5102207;28;20016;-76
2023/01/16 00:17:04;;;;;;;54.05;28.75;;;;;;;;;;5117507;28;20023;-75
2023/01/16 00:19:50;;;;;;;52.42;28.38;;;;;;;;;;5101489;28;20480;-77
2023/01/16 00:22:35;;;;;;;45.85;26.25;;;;;;;;;;5102035;28;20019;-76
2023/01/16 00:25:21;;;;;;;46.20;24.77;;;;;;;;;;5116826;28;20016;-76
2023/01/16 00:28:07;;;;;;;42.88;23.30;;;;;;;;;;5115686;28;20026;-75
2023/01/16 00:30:52;;;;;;;42.95;23.25;;;;;;;;;;5117089;28;20027;-75
2023/01/16 00:33:38;;;;;;;45.80;23.52;;;;;;;;;;5116477;28;20463;-76
2023/01/16 00:36:23;;;;;;;43.58;22.38;;;;;;;;;;5102126;28;20024;-76
2023/01/16 00:39:09;;;;;;;35.78;20.33;;;;;;;;;;5116856;28;20019;-76
2023/01/16 00:41:55;;;;;;;37.55;19.75;;;;;;;;;;5116580;28;20102;-76
2023/01/16 00:44:40;;;;;;;34.05;19.02;;;;;;;;;;5101738;28;20053;-77
2023/01/16 00:47:26;;;;;;;38.00;19.15;;;;;;;;;;5101999;28;20043;-76
2023/01/16 00:50:11;;;;;;;34.85;19.38;;;;;;;;;;5117548;28;20030;-76
2023/01/16 00:52:57;;;;;;;32.35;17.92;;;;;;;;;;5116511;28;20016;-77
2023/01/16 00:55:42;;;;;;;33.03;18.08;;;;;;;;;;5117240;28;20011;-75
2023/01/16 00:58:28;;;;;;;28.05;16.40;;;;;;;;;;5116554;28;20100;-76
2023/01/16 01:01:13;;;;;;;32.83;16.73;;;;;;;;;;5116200;28;20047;-77
2023/01/16 01:03:59;;;;;;;30.08;16.70;;;;;;;;;;5116441;28;20061;-77
2023/01/16 01:06:45;;;;;;;30.35;16.75;;;;;;;;;;5116121;28;20526;-76
2023/01/16 01:09:30;;;;;;;28.80;16.08;;;;;;;;;;5117221;28;20512;-76
2023/01/16 01:12:16;;;;;;;29.80;16.48;;;;;;;;;;5116071;28;20069;-76
2023/01/16 01:15:02;;;;;;;29.73;17.25;;;;;;;;;;5116582;28;20435;-77
2023/01/16 01:17:48;;;;;;;30.25;16.02;;;;;;;;;;5115659;28;20016;-76
2023/01/16 01:20:33;;;;;;;30.75;16.98;;;;;;;;;;5100776;28;20019;-76
2023/01/16 01:23:19;;;;;;;28.80;16.10;;;;;;;;;;5116189;28;20102;-77
2023/01/16 01:26:05;;;;;;;27.45;15.68;;;;;;;;;;5115909;28;20024;-77
2023/01/16 01:28:51;;;;;;;28.23;16.00;;;;;;;;;;5116091;28;20103;-75
2023/01/16 01:31:36;;;;;;;33.65;16.55;;;;;;;;;;5115340;28;20020;-75
2023/01/16 01:34:22;;;;;;;37.17;17.38;;;;;;;;;;5116170;28;20446;-77
2023/01/16 01:37:07;;;;;;;28.45;15.43;;;;;;;;;;5115460;28;20062;-76
2023/01/16 01:39:53;;;;;;;27.17;15.48;;;;;;;;;;5115293;28;20093;-76
2023/01/16 01:42:42;;;;;;;26.52;15.25;;;;;;;;;;5115659;28;20019;-75
2023/01/16 01:45:31;;;;;;;26.48;15.20;;;;;;;;;;5115094;28;20474;-77
2023/01/16 01:48:25;;;;;;;31.63;16.02;;;;;;;;;;5115438;28;20055;-77
2023/01/16 01:51:16;;;;;;;27.67;15.40;;;;;;;;;;5115734;28;20023;-76
2023/01/16 01:54:07;;;;;;;25.60;14.98;;;;;;;;;;5115629;28;20030;-76
2023/01/16 01:56:55;;;;;;;25.95;15.05;;;;;;;;;;5114981;28;20033;-77
2023/01/16 01:59:42;;;;;;;26.50;15.15;;;;;;;;;;5114724;28;20108;-76
2023/01/16 02:02:33;;;;;;;25.10;15.50;;;;;;;;;;5100147;28;20102;-76
2023/01/16 02:05:25;;;;;;;25.15;15.38;;;;;;;;;;5114920;28;20070;-75
2023/01/16 02:08:13;;;;;;;26.25;16.33;;;;;;;;;;5100710;28;20119;-75
2023/01/16 02:11:05;;;;;;;30.52;16.15;;;;;;;;;;5114648;28;20098;-76
2023/01/16 02:13:52;;;;;;;25.42;14.85;;;;;;;;;;5115341;28;20436;-76
2023/01/16 02:19:45;;;;;;;25.27;14.55;;;;;;;;;;5115152;28;20054;-77
2023/01/16 02:22:40;;;;;;;24.48;13.95;;;;;;;;;;5114672;28;20015;-76
2023/01/16 02:25:44;;;;;;;25.42;14.88;;;;;;;;;;5099274;28;20019;-75
2023/01/16 02:28:29;;;;;;;24.98;14.98;;;;;;;;;;5114560;28;20023;-76
2023/01/16 02:31:18;;;;;;;25.98;15.13;;;;;;;;;;5114841;28;20024;-76
2023/01/16 02:34:04;;;;;;;27.52;14.95;;;;;;;;;;5114711;28;20084;-75
2023/01/16 02:36:49;;;;;;;26.88;15.80;;;;;;;;;;5114888;28;20440;-77
2023/01/16 02:39:43;;;;;;;26.92;15.82;;;;;;;;;;5115087;28;20030;-76
2023/01/16 02:42:42;;;;;;;29.35;16.20;;;;;;;;;;5099635;28;20079;-75
2023/01/16 02:45:46;;;;;;;29.30;16.70;;;;;;;;;;5104943;28;20012;-74
2023/01/16 02:49:07;;;;;;;28.98;16.60;;;;;;;;;;5104646;28;20015;-76
2023/01/16 02:51:58;;;;;;;29.88;17.20;;;;;;;;;;5024099;28;20045;-75
2023/01/16 02:54:58;;;;;;;28.52;16.48;;;;;;;;;;5105137;28;20095;-75
2023/01/16 02:57:46;;;;;;;29.38;16.85;;;;;;;;;;5120081;28;20034;-75
2023/01/16 03:00:33;;;;;;;29.17;17.05;;;;;;;;;;5119200;28;20032;-75
2023/01/16 03:03:39;;;;;;;30.55;17.05;;;;;;;;;;5120977;28;20034;-77
2023/01/16 03:06:48;;;;;;;30.73;17.35;;;;;;;;;;5111687;28;20377;-76
2023/01/16 03:09:33;;;;;;;30.60;17.67;;;;;;;;;;5127607;28;20089;-75
2023/01/16 03:12:32;;;;;;;29.67;16.83;;;;;;;;;;5122097;28;20062;-76
2023/01/16 03:15:43;;;;;;;29.30;16.83;;;;;;;;;;5131537;28;20020;-76
2023/01/16 03:18:29;;;;;;;30.65;17.60;;;;;;;;;;5120298;28;20024;-76
2023/01/16 03:21:32;;;;;;;30.50;16.85;;;;;;;;;;5102421;28;20070;-76
2023/01/16 03:24:29;;;;;;;29.33;16.75;;;;;;;;;;5120450;28;20450;-76
2023/01/16 03:27:25;;;;;;;26.83;16.02;;;;;;;;;;5119094;28;20071;-76
2023/01/16 03:30:11;;;;;;;32.05;17.08;;;;;;;;;;5117947;28;20425;-77
2023/01/16 03:33:06;;;;;;;28.77;16.45;;;;;;;;;;5118138;28;20023;-76
2023/01/16 03:35:57;;;;;;;28.88;16.75;;;;;;;;;;5102940;28;20027;-76
2023/01/16 03:38:44;;;;;;;31.58;17.13;;;;;;;;;;5117451;28;20027;-75
2023/01/16 03:41:31;;;;;;;30.55;17.20;;;;;;;;;;5117941;28;20054;-76
2023/01/16 03:44:25;;;;;;;29.58;16.98;;;;;;;;;;5102371;28;20444;-76
2023/01/16 03:47:15;;;;;;;29.02;16.73;;;;;;;;;;5118264;28;20020;-76
2023/01/16 03:50:03;;;;;;;29.23;17.55;;;;;;;;;;5120614;28;20024;-76
2023/01/16 03:52:53;;;;;;;33.78;19.13;;;;;;;;;;5103948;28;20360;-77
2023/01/16 03:55:41;;;;;;;33.60;19.05;;;;;;;;;;5117645;28;20024;-76
2023/01/16 03:58:37;;;;;;;35.55;19.95;;;;;;;;;;5117028;28;20020;-77
2023/01/16 04:01:32;;;;;;;32.20;19.58;;;;;;;;;;5102943;28;20047;-77
2023/01/16 04:04:38;;;;;;;36.08;21.02;;;;;;;;;;5120827;28;20069;-77
2023/01/16 04:07:32;;;;;;;33.80;19.85;;;;;;;;;;5107221;28;20099;-76
2023/01/16 04:10:38;;;;;;;34.65;20.75;;;;;;;;;;5104822;28;20024;-76
2023/01/16 04:13:29;;;;;;;32.88;19.92;;;;;;;;;;5102435;28;20039;-76
2023/01/16 04:16:17;;;;;;;35.58;20.98;;;;;;;;;;5118054;28;20012;-76
2023/01/16 04:19:04;;;;;;;40.38;21.98;;;;;;;;;;5102516;28;20012;-77
2023/01/16 04:21:49;;;;;;;38.25;22.15;;;;;;;;;;5117226;28;20486;-77
2023/01/16 04:24:35;;;;;;;44.20;22.55;;;;;;;;;;5117521;28;20356;-76
2023/01/16 04:27:21;;;;;;;38.70;21.65;;;;;;;;;;5117202;28;20107;-76
2023/01/16 04:30:07;;;;;;;42.58;22.30;;;;;;;;;;5101827;28;20016;-77
2023/01/16 04:32:52;;;;;;;46.53;24.67;;;;;;;;;;5116865;28;20031;-76
2023/01/16 04:35:38;;;;;;;48.55;26.25;;;;;;;;;;5116886;28;20402;-76
2023/01/16 04:38:23;;;;;;;45.50;24.92;;;;;;;;;;5117590;28;20030;-76
2023/01/16 04:41:09;;;;;;;44.20;23.88;;;;;;;;;;5101680;28;20045;-76
2023/01/16 04:43:54;;;;;;;45.58;25.38;;;;;;;;;;5102612;28;20016;-76
2023/01/16 04:46:40;;;;;;;47.70;24.73;;;;;;;;;;5118962;28;20111;-76
2023/01/16 04:49:26;;;;;;;47.42;24.90;;;;;;;;;;5119089;28;20419;-76
2023/01/16 04:52:12;;;;;;;46.35;25.30;;;;;;;;;;5116383;28;20023;-76
2023/01/16 04:54:57;;;;;;;53.70;25.40;;;;;;;;;;5101131;28;20399;-76
2023/01/16 04:57:43;;;;;;;49.10;25.77;;;;;;;;;;5102511;28;20089;-78
2023/01/16 05:00:28;;;;;;;46.30;24.92;;;;;;;;;;5116265;28;20036;-76
2023/01/16 05:03:14;;;;;;;47.35;25.02;;;;;;;;;;5101867;28;20016;-77
2023/01/16 05:06:00;;;;;;;51.88;30.65;;;;;;;;;;5116480;28;20034;-77
2023/01/16 05:08:45;;;;;;;50.22;29.63;;;;;;;;;;5116276;28;20343;-76
2023/01/16 05:11:31;;;;;;;51.92;30.02;;;;;;;;;;5116835;28;20042;-77
2023/01/16 05:14:17;;;;;;;50.50;29.55;;;;;;;;;;5101159;28;20451;-75
2023/01/16 05:17:02;;;;;;;48.22;28.17;;;;;;;;;;5116372;28;20024;-76
2023/01/16 05:19:48;;;;;;;53.67;30.83;;;;;;;;;;5115956;28;20031;-76
2023/01/16 05:22:33;;;;;;;50.78;30.63;;;;;;;;;;5115740;28;20027;-74
2023/01/16 05:25:19;;;;;;;54.25;31.08;;;;;;;;;;5100865;28;20055;-75
2023/01/16 05:28:05;;;;;;;50.58;28.80;;;;;;;;;;5116173;28;20029;-76
2023/01/16 05:30:50;;;;;;;51.53;29.55;;;;;;;;;;5100149;28;20015;-76
2023/01/16 05:33:36;;;;;;;51.28;27.15;;;;;;;;;;5116632;28;20098;-76
2023/01/16 05:36:21;;;;;;;45.55;24.80;;;;;;;;;;5115465;28;20022;-76
2023/01/16 05:39:07;;;;;;;39.85;22.98;;;;;;;;;;5115568;28;20091;-76
2023/01/16 05:41:52;;;;;;;39.17;22.40;;;;;;;;;;5100315;28;20023;-76
2023/01/16 05:44:38;;;;;;;42.47;22.73;;;;;;;;;;5116622;28;20040;-77
2023/01/16 05:47:24;;;;;;;40.95;21.83;;;;;;;;;;5099943;28;20027;-76
2023/01/16 05:50:09;;;;;;;41.47;21.50;;;;;;;;;;5115650;28;20414;-76
2023/01/16 05:52:55;;;;;;;47.55;23.55;;;;;;;;;;5115635;28;20488;-76
2023/01/16 05:55:45;;;;;;;49.10;25.80;;;;;;;;;;5100891;28;20024;-77
2023/01/16 05:58:31;;;;;;;45.05;24.05;;;;;;;;;;5116035;28;20410;-75
2023/01/16 06:01:17;;;;;;;46.03;23.42;;;;;;;;;;5114723;28;20051;-76
2023/01/16 06:04:02;;;;;;;39.15;22.25;;;;;;;;;;5100698;28;20035;-76
2023/01/16 06:06:48;;;;;;;49.55;25.20;;;;;;;;;;5099748;28;20028;-76
2023/01/16 06:09:33;;;;;;;58.75;32.42;;;;;;;;;;5115047;28;20169;-75
2023/01/16 06:12:19;;;;;;;59.10;31.10;;;;;;;;;;5117186;28;20184;-75
2023/01/16 06:15:05;;;;;;;51.33;27.95;;;;;;;;;;5115908;28;20328;-76
2023/01/16 06:17:53;;;;;;;50.58;26.77;;;;;;;;;;5119676;28;20019;-76
2023/01/16 06:20:39;;;;;;;53.72;28.55;;;;;;;;;;5115373;28;20004;-75
2023/01/16 06:23:24;;;;;;;54.85;30.23;;;;;;;;;;5129277;28;20015;-75
2023/01/16 06:26:10;;;;;;;52.15;30.08;;;;;;;;;;5117202;28;20079;-75
2023/01/16 06:28:56;;;;;;;49.00;26.75;;;;;;;;;;5110801;28;20035;-75
2023/01/16 06:31:41;;;;;;;51.35;28.45;;;;;;;;;;5126148;28;20031;-75
2023/01/16 06:34:27;;;;;;;61.83;34.92;;;;;;;;;;5125875;28;20044;-76
2023/01/16 06:37:12;;;;;;;56.70;31.17;;;;;;;;;;5109423;28;20073;-75
2023/01/16 06:39:59;;;;;;;48.92;30.65;;;;;;;;;;5107560;28;20023;-76
2023/01/16 06:42:45;;;;;;;58.03;32.80;;;;;;;;;;5121099;28;20028;-75
2023/01/16 06:45:31;;;;;;;62.05;32.15;;;;;;;;;;5104994;28;20015;-76
2023/01/16 06:48:17;;;;;;;52.72;30.75;;;;;;;;;;5117486;28;20364;-75
2023/01/16 06:51:02;;;;;;;52.75;30.63;;;;;;;;;;5116464;28;20028;-76
2023/01/16 06:53:48;;;;;;;55.30;33.05;;;;;;;;;;5100837;28;20106;-76
2023/01/16 06:56:33;;;;;;;60.63;34.80;;;;;;;;;;5116801;28;20030;-75
2023/01/16 06:59:19;;;;;;;62.40;37.00;;;;;;;;;;5117320;28;20020;-74
2023/01/16 07:02:05;;;;;;;58.60;35.00;;;;;;;;;;5116946;28;20439;-76
2023/01/16 07:04:50;;;;;;;58.65;35.25;;;;;;;;;;5117830;28;20062;-75
2023/01/16 07:07:36;;;;;;;65.47;38.35;;;;;;;;;;5116309;28;20016;-75
2023/01/16 07:10:22;;;;;;;63.42;39.33;;;;;;;;;;5118061;28;20364;-77
2023/01/16 07:13:09;;;;;;;71.32;39.97;;;;;;;;;;5118490;28;20047;-76
2023/01/16 07:25:21;;;;;;;51.47;28.98;;;;;;;;;;5122178;28;20034;-76
2023/01/16 07:28:06;;;;;;;44.58;24.23;;;;;;;;;;5123087;28;20023;-76
2023/01/16 07:30:52;;;;;;;42.13;25.25;;;;;;;;;;5107588;28;20408;-76
2023/01/16 07:33:37;;;;;;;44.65;25.33;;;;;;;;;;5101589;28;20023;-75
2023/01/16 07:36:23;;;;;;;45.33;24.92;;;;;;;;;;5104089;28;20473;-76
2023/01/16 07:39:08;;;;;;;45.97;24.58;;;;;;;;;;5124920;28;20057;-74
2023/01/16 07:41:54;;;;;;;45.35;24.73;;;;;;;;;;5125149;28;20047;-76
2023/01/16 07:44:40;;;;;;;45.50;25.50;;;;;;;;;;5119787;28;20027;-76
2023/01/16 07:47:25;;;;;;;44.75;25.83;;;;;;;;;;5103700;28;20459;-76
2023/01/16 07:50:11;;;;;;;46.45;25.95;;;;;;;;;;5117747;28;20016;-76
2023/01/16 07:52:56;;;;;;;43.17;24.98;;;;;;;;;;5118545;28;20424;-76
2023/01/16 07:55:42;;;;;;;46.85;25.00;;;;;;;;;;5123299;28;20023;-76
2023/01/16 07:58:28;;;;;;;41.85;24.83;;;;;;;;;;5117054;28;20019;-75
2023/01/16 08:01:14;;;;;;;50.30;27.75;;;;;;;;;;5117366;28;20134;-75
2023/01/16 08:03:59;;;;;;;32.08;19.17;;;;;;;;;;5118710;28;20028;-76
2023/01/16 08:06:45;;;;;;;26.92;15.77;;;;;;;;;;5118308;28;20027;-75
2023/01/16 08:09:30;;;;;;;21.35;12.75;;;;;;;;;;5118053;28;20015;-76
2023/01/16 08:12:16;;;;;;;20.08;13.00;;;;;;;;;;5118974;28;20362;-76
2023/01/16 08:15:02;;;;;;;20.20;13.07;;;;;;;;;;5102406;28;20058;-76
2023/01/16 08:17:47;;;;;;;19.80;12.70;;;;;;;;;;5117977;28;20028;-76
2023/01/16 08:20:33;;;;;;;17.13;11.13;;;;;;;;;;5117642;28;20053;-76
2023/01/16 08:23:18;;;;;;;16.83;11.15;;;;;;;;;;5117109;28;20050;-77
2023/01/16 08:26:04;;;;;;;15.35;9.93;;;;;;;;;;5117894;28;20062;-76
2023/01/16 08:28:51;;;;;;;15.30;10.55;;;;;;;;;;5117486;28;20023;-76
2023/01/16 08:31:37;;;;;;;31.33;21.02;;;;;;;;;;5101761;28;20028;-76
2023/01/16 08:34:23;;;;;;;36.35;23.00;;;;;;;;;;5117263;28;20007;-75
2023/01/16 08:37:10;;;;;;;37.63;23.08;;;;;;;;;;5101919;28;20016;-76
2023/01/16 08:39:56;;;;;;;38.17;22.77;;;;;;;;;;5117790;28;20305;-76
2023/01/16 08:51:54;;;;;;;46.15;28.48;;;;;;;;;;5116770;28;20451;-76
2023/01/16 08:54:39;;;;;;;46.35;27.80;;;;;;;;;;5117321;28;20028;-76
2023/01/16 08:57:27;;;;;;;45.72;28.25;;;;;;;;;;5102327;28;20077;-76
2023/01/16 09:00:13;;;;;;;52.08;29.58;;;;;;;;;;5116149;28;20410;-76
2023/01/16 09:03:00;;;;;;;43.05;25.67;;;;;;;;;;5102216;28;20131;-77
2023/01/16 09:05:46;;;;;;;32.83;21.58;;;;;;;;;;5116856;28;20024;-75
2023/01/16 09:08:32;;;;;;;39.70;22.48;;;;;;;;;;5115308;28;20019;-76
2023/01/16 09:14:21;;;;;;;33.65;20.83;;;;;;;;;;5116744;28;20016;-75
2023/01/16 09:17:08;;;;;;;32.85;20.52;;;;;;;;;;5116742;28;20047;-76
2023/01/16 09:19:54;;;;;;;30.90;20.27;;;;;;;;;;5116557;28;20175;-76
2023/01/16 09:22:40;;;;;;;30.10;18.90;;;;;;;;;;5115987;28;20019;-76
2023/01/16 09:25:26;;;;;;;30.63;19.08;;;;;;;;;;5116345;28;20023;-76
2023/01/16 09:28:12;;;;;;;34.13;20.13;;;;;;;;;;5115507;28;20023;-76
2023/01/16 09:30:57;;;;;;;30.55;18.35;;;;;;;;;;5116128;28;20030;-75
2023/01/16 09:33:43;;;;;;;29.63;18.02;;;;;;;;;;5117050;28;20344;-76
2023/01/16 09:36:29;;;;;;;26.55;17.25;;;;;;;;;;5115473;28;20145;-76
2023/01/16 09:39:15;;;;;;;30.30;18.35;;;;;;;;;;5099873;28;20034;-77
2023/01/16 09:45:30;;;;;;;31.88;19.30;;;;;;;;;;5116539;28;20023;-76
2023/01/16 09:48:38;;;;;;;31.45;18.60;;;;;;;;;;5116192;28;20090;-76
2023/01/16 09:51:26;;;;;;;28.90;18.10;;;;;;;;;;5100672;28;20145;-75
2023/01/16 10:00:27;;;;;;;28.88;18.15;;;;;;;;;;5116060;28;20044;-76
2023/01/16 10:03:12;;;;;;;28.67;17.35;;;;;;;;;;5115566;28;20114;-76
2023/01/16 10:05:58;;;;;;;28.77;17.73;;;;;;;;;;5115990;28;20103;-76
2023/01/16 10:09:02;;;;;;;33.65;20.10;;;;;;;;;;5115542;28;20050;-76
2023/01/16 10:11:48;;;;;;;29.02;17.98;;;;;;;;;;5116601;28;20435;-76
2023/01/16 10:14:51;;;;;;;32.15;19.80;;;;;;;;;;5115878;28;20012;-77
2023/01/16 10:17:44;;;;;;;35.53;20.23;;;;;;;;;;5100142;28;20020;-76
2023/01/16 10:20:33;;;;;;;31.02;18.65;;;;;;;;;;5115628;28;20355;-76
2023/01/16 10:23:18;;;;;;;32.30;19.25;;;;;;;;;;5115323;28;20028;-77
2023/01/16 10:26:10;;;;;;;35.03;20.90;;;;;;;;;;5115261;28;20421;-77
2023/01/16 10:29:14;;;;;;;33.40;19.73;;;;;;;;;;5115102;28;20074;-76
2023/01/16 10:32:05;;;;;;;31.13;19.67;;;;;;;;;;5114696;28;20444;-76
2023/01/16 10:35:14;;;;;;;27.48;18.15;;;;;;;;;;5099746;28;20027;-76
2023/01/16 10:38:07;;;;;;;35.15;19.65;;;;;;;;;;5114490;28;20525;-76
2023/01/16 10:40:54;;;;;;;39.03;20.00;;;;;;;;;;5114332;28;20120;-77
2023/01/16 10:49:48;;;;;;;30.50;19.13;;;;;;;;;;5115848;28;20020;-77
2023/01/16 10:52:35;;;;;;;32.95;19.10;;;;;;;;;;5117356;28;20024;-76
2023/01/16 10:55:20;;;;;;;35.65;19.73;;;;;;;;;;5114504;28;20024;-73
2023/01/16 10:58:11;;;;;;;31.95;19.35;;;;;;;;;;5114374;28;20084;-77
2023/01/16 11:01:00;;;;;;;35.40;20.15;;;;;;;;;;5114349;28;20112;-76
2023/01/16 11:03:47;;;;;;;33.30;19.48;;;;;;;;;;5115546;28;20459;-76
2023/01/16 11:06:32;;;;;;;27.92;18.50;;;;;;;;;;5114547;28;20028;-77
2023/01/16 11:09:19;;;;;;;32.15;18.75;;;;;;;;;;5114602;28;20448;-76
2023/01/16 11:18:32;;;;;;;30.90;18.88;;;;;;;;;;5119147;28;20027;-77
2023/01/16 11:21:24;;;;;;;29.77;18.77;;;;;;;;;;5103692;28;20503;-76
2023/01/16 11:24:14;;;;;;;32.33;20.30;;;;;;;;;;5102980;28;20020;-76
2023/01/16 11:27:00;;;;;;;32.97;19.67;;;;;;;;;;5103451;28;20024;-76
2023/01/16 11:29:46;;;;;;;33.13;18.98;;;;;;;;;;5118104;28;20436;-76
2023/01/16 11:32:37;;;;;;;31.55;20.02;;;;;;;;;;5117396;28;20043;-76
2023/01/16 11:35:33;;;;;;;30.92;18.30;;;;;;;;;;5117589;28;20396;-76
2023/01/16 11:38:20;;;;;;;34.90;19.30;;;;;;;;;;5117404;28;20027;-75
2023/01/16 11:41:08;;;;;;;28.88;18.70;;;;;;;;;;5118073;28;20106;-76
2023/01/16 11:47:16;;;;;;;32.08;19.17;;;;;;;;;;5118339;28;20034;-76
2023/01/16 11:50:19;;;;;;;27.60;17.08;;;;;;;;;;5117477;28;20028;-75
2023/01/16 11:53:05;;;;;;;26.05;16.63;;;;;;;;;;5117690;28;20022;-76
2023/01/16 11:55:51;;;;;;;32.03;17.52;;;;;;;;;;5117656;28;20145;-76
2023/01/16 11:58:51;;;;;;;29.02;16.75;;;;;;;;;;5118451;28;20015;-76
2023/01/16 12:05:53;;;;;;;23.67;14.35;;;;;;;;;;5118125;28;20032;-78
2023/01/16 12:07:58;;;;;;;24.27;15.38;;;;;;;;;;5116631;28;20340;-77
2023/01/16 12:11:02;;;;;;;25.55;14.80;;;;;;;;;;5118133;28;20027;-76
2023/01/16 12:17:12;;;;;;;27.70;16.85;;;;;;;;;;5117383;28;20455;-77
2023/01/16 12:20:09;;;;;;;29.95;16.60;;;;;;;;;;5117270;28;20132;-77
2023/01/16 12:23:03;;;;;;;29.25;16.30;;;;;;;;;;5118298;28;20019;-76
2023/01/16 12:26:12;;;;;;;29.75;17.33;;;;;;;;;;5102482;28;20023;-77
2023/01/16 12:29:01;;;;;;;29.38;17.48;;;;;;;;;;5117493;28;20027;-77
2023/01/16 12:32:05;;;;;;;29.45;17.25;;;;;;;;;;5117388;28;20360;-77
2023/01/16 12:35:11;;;;;;;28.90;17.52;;;;;;;;;;5117504;28;20356;-76
2023/01/16 12:38:17;;;;;;;28.80;17.30;;;;;;;;;;5117139;28;20065;-77
2023/01/16 12:44:13;;;;;;;30.65;18.20;;;;;;;;;;5117009;28;20042;-76
2023/01/16 12:46:58;;;;;;;31.73;18.35;;;;;;;;;;5117797;28;20425;-76
2023/01/16 12:49:47;;;;;;;28.33;17.70;;;;;;;;;;5101595;28;20020;-76
2023/01/16 12:52:42;;;;;;;30.45;17.27;;;;;;;;;;5117118;28;20016;-77
2023/01/16 12:55:30;;;;;;;32.97;18.65;;;;;;;;;;5102255;28;20016;-76
2023/01/16 12:58:22;;;;;;;34.30;18.05;;;;;;;;;;5117095;28;20044;-77
2023/01/16 13:01:11;;;;;;;36.17;18.55;;;;;;;;;;5116815;28;20047;-76
2023/01/16 13:04:01;;;;;;;33.38;17.70;;;;;;;;;;5101612;28;20100;-77
2023/01/16 13:06:48;;;;;;;30.23;17.27;;;;;;;;;;5116642;28;20089;-76
2023/01/16 13:09:37;;;;;;;31.48;18.67;;;;;;;;;;5116900;28;20402;-76
2023/01/16 13:15:31;;;;;;;30.50;17.55;;;;;;;;;;5116560;28;20030;-76
2023/01/16 13:18:19;;;;;;;32.58;18.13;;;;;;;;;;5116643;28;20023;-76
2023/01/16 13:21:07;;;;;;;29.70;16.77;;;;;;;;;;5101091;28;20019;-76
2023/01/16 13:23:58;;;;;;;31.48;18.02;;;;;;;;;;5115386;28;20023;-77
2023/01/16 13:26:45;;;;;;;31.50;17.92;;;;;;;;;;5116457;28;20015;-76
2023/01/16 13:29:33;;;;;;;37.63;18.88;;;;;;;;;;5115620;28;20024;-77
2023/01/16 13:32:39;;;;;;;37.72;19.30;;;;;;;;;;5114634;28;20024;-77
2023/01/16 13:35:38;;;;;;;37.60;19.63;;;;;;;;;;5099760;28;20011;-76
2023/01/16 13:38:29;;;;;;;31.98;19.00;;;;;;;;;;5100767;28;20107;-76
2023/01/16 13:41:16;;;;;;;37.03;20.17;;;;;;;;;;5100209;28;20360;-77
2023/01/16 13:47:31;;;;;;;36.15;20.00;;;;;;;;;;5116043;28;20429;-76
2023/01/16 13:50:24;;;;;;;29.63;18.25;;;;;;;;;;5115346;28;20051;-77
2023/01/16 13:53:13;;;;;;;33.03;18.48;;;;;;;;;;5115415;28;20047;-77
2023/01/16 13:56:09;;;;;;;34.85;19.85;;;;;;;;;;5116337;28;20027;-76
2023/01/16 13:58:59;;;;;;;32.10;18.58;;;;;;;;;;5115331;28;20402;-77
2023/01/16 14:01:45;;;;;;;29.02;17.90;;;;;;;;;;5114809;28;20039;-75
2023/01/16 14:04:31;;;;;;;39.50;20.50;;;;;;;;;;5115652;28;20023;-76
2023/01/16 14:10:59;;;;;;;33.45;19.23;;;;;;;;;;5092741;28;20031;-77
2023/01/16 14:13:45;;;;;;;34.33;19.48;;;;;;;;;;5115360;28;20023;-75
2023/01/16 14:16:35;;;;;;;35.00;20.33;;;;;;;;;;5115455;28;20118;-76
2023/01/16 14:19:21;;;;;;;31.98;19.45;;;;;;;;;;5114828;28;20431;-76
2023/01/16 14:25:03;;;;;;;36.35;20.33;;;;;;;;;;5115567;28;20030;-76
2023/01/16 14:27:50;;;;;;;42.47;22.95;;;;;;;;;;5100679;28;20096;-76
2023/01/16 14:30:38;;;;;;;32.95;19.02;;;;;;;;;;5100067;28;20439;-77
2023/01/16 14:33:24;;;;;;;32.42;19.30;;;;;;;;;;5115092;28;20043;-77
2023/01/16 14:36:12;;;;;;;32.00;18.70;;;;;;;;;;5114502;28;20027;-76
2023/01/16 14:38:58;;;;;;;59.92;29.70;;;;;;;;;;5114997;28;20030;-77
2023/01/16 14:57:40;;;;;;;34.38;20.67;;;;;;;;;;5115455;28;20016;-76
2023/01/16 15:00:28;;;;;;;37.70;22.00;;;;;;;;;;5114996;28;20368;-76
2023/01/16 15:03:20;;;;;;;39.03;23.73;;;;;;;;;;5114892;28;20161;-75
2023/01/16 15:06:08;;;;;;;44.25;27.42;;;;;;;;;;5099583;28;20402;-76
2023/01/16 15:08:54;;;;;;;40.05;24.15;;;;;;;;;;5115318;28;20028;-76
2023/01/16 15:12:09;;;;;;;35.95;22.50;;;;;;;;;;5098976;28;20020;-75
2023/01/16 15:14:57;;;;;;;42.90;23.65;;;;;;;;;;5109467;28;20031;-77
2023/01/16 15:23:54;;;;;;;65.00;38.78;;;;;;;;;;5116063;28;20019;-74
2023/01/16 15:26:50;;;;;;;49.97;32.42;;;;;;;;;;5114766;28;20024;-75
2023/01/16 15:29:43;;;;;;;42.92;26.38;;;;;;;;;;5115107;28;20069;-76
2023/01/16 15:32:29;;;;;;;42.17;25.85;;;;;;;;;;5098800;28;20023;-76
2023/01/16 15:35:15;;;;;;;43.38;27.10;;;;;;;;;;5114643;28;20439;-76
2023/01/16 15:38:03;;;;;;;42.67;26.13;;;;;;;;;;5101168;28;20027;-76
2023/01/16 15:40:50;;;;;;;37.58;23.27;;;;;;;;;;5114221;28;20039;-76
2023/01/16 15:46:43;;;;;;;39.97;24.52;;;;;;;;;;5114261;28;20045;-76
2023/01/16 15:49:40;;;;;;;39.17;23.77;;;;;;;;;;5114012;28;20066;-76
2023/01/16 15:52:30;;;;;;;41.78;25.13;;;;;;;;;;5099368;28;20077;-77
2023/01/16 15:55:24;;;;;;;39.25;24.30;;;;;;;;;;5114655;28;20041;-74
2023/01/16 15:58:18;;;;;;;42.85;25.92;;;;;;;;;;5115627;28;20075;-75
2023/01/16 16:01:07;;;;;;;57.65;34.45;;;;;;;;;;5118435;28;20138;-76
2023/01/16 16:03:53;;;;;;;40.58;25.65;;;;;;;;;;5117444;28;20020;-75
2023/01/16 16:06:40;;;;;;;45.00;27.20;;;;;;;;;;5103539;28;20019;-75
2023/01/16 16:09:26;;;;;;;44.67;26.08;;;;;;;;;;5118183;28;20019;-75
2023/01/16 16:12:12;;;;;;;41.38;25.13;;;;;;;;;;5102744;28;20012;-76
2023/01/16 16:18:23;;;;;;;40.78;25.95;;;;;;;;;;5117905;28;20016;-77
2023/01/16 16:21:12;;;;;;;46.00;28.05;;;;;;;;;;5102812;28;20110;-74
2023/01/16 16:24:05;;;;;;;51.05;30.55;;;;;;;;;;5117651;28;20358;-76
2023/01/16 16:26:51;;;;;;;48.20;29.92;;;;;;;;;;5117895;28;20029;-75
2023/01/16 16:29:37;;;;;;;50.75;30.27;;;;;;;;;;5117291;28;20440;-75
2023/01/16 16:32:22;;;;;;;95.28;44.65;;;;;;;;;;5101541;28;20012;-76
2023/01/16 16:35:16;;;;;;;99.18;41.67;;;;;;;;;;5117800;28;20039;-76
2023/01/16 16:38:02;;;;;;;56.33;31.00;;;;;;;;;;5117275;28;20015;-75
2023/01/16 16:41:03;;;;;;;83.95;41.35;;;;;;;;;;5117090;28;20027;-76
2023/01/16 16:43:58;;;;;;;77.90;41.83;;;;;;;;;;5117230;28;20020;-76
2023/01/16 16:46:46;;;;;;;59.05;33.63;;;;;;;;;;5117263;28;20023;-76
2023/01/16 16:49:35;;;;;;;59.92;34.65;;;;;;;;;;5117494;28;20023;-76
2023/01/16 16:52:27;;;;;;;63.97;37.75;;;;;;;;;;5102514;28;20023;-76
2023/01/16 16:55:28;;;;;;;59.03;34.58;;;;;;;;;;5117219;28;20057;-75
2023/01/16 16:58:15;;;;;;;53.63;31.50;;;;;;;;;;5115874;28;20034;-73
2023/01/16 17:01:01;;;;;;;68.57;40.75;;;;;;;;;;5116614;28;20059;-74
2023/01/16 17:03:48;;;;;;;56.08;33.45;;;;;;;;;;5116787;28;20098;-74
2023/01/16 17:06:34;;;;;;;58.22;34.67;;;;;;;;;;5117472;28;20020;-75
2023/01/16 17:09:20;;;;;;;60.05;35.50;;;;;;;;;;5115472;28;20055;-74
2023/01/16 17:12:12;;;;;;;55.10;32.88;;;;;;;;;;5117000;28;20100;-75
2023/01/16 17:14:58;;;;;;;59.03;32.38;;;;;;;;;;5117094;28;20043;-74
2023/01/16 17:17:47;;;;;;;54.58;32.83;;;;;;;;;;5117265;28;20085;-75
2023/01/16 17:20:35;;;;;;;51.72;32.40;;;;;;;;;;5116286;28;20093;-73
2023/01/16 17:23:22;;;;;;;53.72;30.67;;;;;;;;;;5116217;28;20034;-74
2023/01/16 17:26:09;;;;;;;59.08;34.40;;;;;;;;;;5101163;28;20309;-74
2023/01/16 17:28:56;;;;;;;60.95;33.30;;;;;;;;;;5117238;28;20027;-74
2023/01/16 17:31:42;;;;;;;60.08;35.88;;;;;;;;;;5115389;28;20209;-73
2023/01/16 17:34:28;;;;;;;62.22;35.83;;;;;;;;;;5116181;28;20033;-75
2023/01/16 17:37:14;;;;;;;54.78;32.78;;;;;;;;;;5115822;28;20382;-74
2023/01/16 17:39:59;;;;;;;56.10;32.70;;;;;;;;;;5116475;28;20026;-75
2023/01/16 17:45:55;;;;;;;63.88;34.65;;;;;;;;;;5116349;28;20047;-75
2023/01/16 17:48:40;;;;;;;61.92;35.08;;;;;;;;;;5100061;28;20015;-76
2023/01/16 17:51:27;;;;;;;56.65;33.78;;;;;;;;;;5116212;28;20016;-74
2023/01/16 17:55:50;;;;;;;54.00;31.65;;;;;;;;;;5100144;28;20020;-74
2023/01/16 17:57:18;;;;;;;53.13;30.65;;;;;;;;;;5115633;28;20024;-74
2023/01/16 18:00:04;;;;;;;48.80;29.67;;;;;;;;;;5115674;28;20096;-74
2023/01/16 18:02:50;;;;;;;56.63;31.80;;;;;;;;;;5115240;28;20028;-73
2023/01/16 18:05:36;;;;;;;54.63;30.45;;;;;;;;;;5101802;28;20114;-73